Terminal Aerodrome Forecast
Issued by NWS

Home | Current Version | Previous Version | Graphics & Text | Print | Product List | Glossary On
Versions: 1 2 3 4 5 6 7 8 9 10 11 12 13 14 15
000
FTUS43 KABR 060801 AAA
TAFPIR
TAF AMD
KPIR 060801Z 0608/0706 24010KT P6SM SKC WS020/24040KT
     FM061100 16005KT P6SM FEW250
     FM061600 23005KT P6SM SCT250
     FM062000 35009KT P6SM SCT060=

USA.gov is the U.S. government's official web portal to all federal, state and local government web resources and services.